createdAt,value
2018-05-14T00:01:26.658Z,98.38
2018-05-14T00:03:55.135Z,98.36
2018-05-14T00:06:23.460Z,98.16
2018-05-14T00:08:51.811Z,98.21
2018-05-14T00:11:20.723Z,98.10
2018-05-14T00:13:49.496Z,98.40
2018-05-14T00:16:18.031Z,98.76
2018-05-14T00:18:46.749Z,98.66
2018-05-14T00:21:15.335Z,98.47
2018-05-14T00:23:43.850Z,98.07
2018-05-14T00:26:12.703Z,97.81
2018-05-14T00:28:41.142Z,97.77
2018-05-14T00:31:09.764Z,98.15
2018-05-14T00:33:38.351Z,98.09
2018-05-14T00:36:06.648Z,97.97
2018-05-14T00:38:35.675Z,98.40
2018-05-14T00:41:04.006Z,98.54
2018-05-14T00:43:32.295Z,98.87
2018-05-14T00:46:00.580Z,98.97
2018-05-14T00:48:28.918Z,98.95
2018-05-14T00:50:57.203Z,98.83
2018-05-14T00:53:25.490Z,98.73
2018-05-14T00:55:53.796Z,98.75
2018-05-14T00:58:22.083Z,98.57
2018-05-14T01:00:50.413Z,98.29
2018-05-14T01:03:18.751Z,98.28
2018-05-14T01:05:48.238Z,98.52
2018-05-14T01:08:16.666Z,98.75
2018-05-14T01:10:45.647Z,98.32
2018-05-14T01:13:13.964Z,98.11
2018-05-14T01:15:42.390Z,97.85
2018-05-14T01:18:10.677Z,97.63
2018-05-14T01:20:38.999Z,97.68
2018-05-14T01:23:07.343Z,98.27
2018-05-14T01:25:35.632Z,98.95
2018-05-14T01:28:04.001Z,98.86
2018-05-14T01:30:32.270Z,98.75
2018-05-14T01:33:00.558Z,98.76
2018-05-14T01:35:29.587Z,99.01
2018-05-14T01:37:58.454Z,99.02
2018-05-14T01:40:26.954Z,99.11
2018-05-14T01:42:55.293Z,98.96
2018-05-14T01:45:23.592Z,98.91
2018-05-14T01:47:52.075Z,98.91
2018-05-14T01:50:20.702Z,98.84
2018-05-14T01:52:49.002Z,98.95
2018-05-14T01:55:17.291Z,98.75
2018-05-14T01:57:45.619Z,98.69
2018-05-14T02:00:13.942Z,99.00
2018-05-14T02:02:42.277Z,99.31
2018-05-14T02:05:10.625Z,99.21
2018-05-14T02:07:39.239Z,99.81
2018-05-14T02:10:07.580Z,99.84
2018-05-14T02:12:36.013Z,99.77
2018-05-14T02:15:04.395Z,99.74
2018-05-14T02:17:32.771Z,99.71
2018-05-14T02:20:01.284Z,99.70
2018-05-14T02:22:30.602Z,99.95
2018-05-14T02:24:59.219Z,99.86
2018-05-14T02:27:27.732Z,99.95
2018-05-14T02:29:56.281Z,99.96
2018-05-14T02:32:24.573Z,99.81
2018-05-14T02:34:52.879Z,99.67
2018-05-14T02:37:21.206Z,99.62
2018-05-14T02:39:49.502Z,99.50
2018-05-14T02:42:17.911Z,99.61
2018-05-14T02:44:46.204Z,99.72
2018-05-14T02:47:14.984Z,99.69
2018-05-14T02:49:43.327Z,100.00
2018-05-14T02:52:12.548Z,100.00
2018-05-14T02:54:41.066Z,100.00
2018-05-14T02:57:09.623Z,100.00
2018-05-14T02:59:38.033Z,100.00
2018-05-14T03:02:07.078Z,100.00
2018-05-14T03:04:35.623Z,100.00
2018-05-14T03:07:03.978Z,100.00
2018-05-14T03:09:32.497Z,100.00
2018-05-14T03:12:00.794Z,100.00
2018-05-14T03:14:29.143Z,100.00
2018-05-14T03:16:57.435Z,100.00
2018-05-14T03:19:25.734Z,100.00
2018-05-14T03:21:54.358Z,100.00
2018-05-14T03:24:23.206Z,100.00
2018-05-14T03:26:51.498Z,100.00
2018-05-14T03:29:19.828Z,100.00
2018-05-14T03:31:48.120Z,100.00
2018-05-14T03:34:16.422Z,100.00
2018-05-14T03:36:44.825Z,100.00
2018-05-14T03:39:13.119Z,100.00
2018-05-14T03:41:41.450Z,100.00
2018-05-14T03:44:10.398Z,100.00
2018-05-14T03:46:38.699Z,100.00
2018-05-14T03:49:07.031Z,100.00
2018-05-14T03:51:35.706Z,100.00
2018-05-14T03:54:04.466Z,100.00
2018-05-14T03:56:32.767Z,100.00
2018-05-14T03:59:18.724Z,100.00
2018-05-14T04:02:15.474Z,100.00
2018-05-14T04:05:01.331Z,100.00
2018-05-14T04:07:29.777Z,100.00
2018-05-14T04:09:58.783Z,100.00
2018-05-14T04:12:27.082Z,100.00
2018-05-14T04:14:55.857Z,100.00
2018-05-14T04:17:24.148Z,100.00
2018-05-14T04:19:52.449Z,100.00
2018-05-14T04:22:21.051Z,100.00
2018-05-14T04:24:49.675Z,100.00
2018-05-14T04:27:18.115Z,100.00
2018-05-14T04:29:47.358Z,100.00
2018-05-14T04:32:15.824Z,100.00
2018-05-14T04:34:44.122Z,100.00
2018-05-14T04:37:13.026Z,100.00
2018-05-14T04:39:41.788Z,100.00
2018-05-14T04:42:10.403Z,100.00
2018-05-14T04:44:39.375Z,100.00
2018-05-14T04:47:07.767Z,100.00
2018-05-14T04:49:36.503Z,100.00
2018-05-14T04:52:05.968Z,100.00
2018-05-14T04:54:34.313Z,100.00
2018-05-14T04:57:02.607Z,100.00
2018-05-14T04:59:31.319Z,100.00
2018-05-14T05:01:59.663Z,100.00
2018-05-14T05:04:28.175Z,100.00
2018-05-14T05:06:56.571Z,100.00
2018-05-14T05:09:24.914Z,100.00
2018-05-14T05:11:53.213Z,100.00
2018-05-14T05:14:22.021Z,100.00
2018-05-14T05:16:50.659Z,100.00
2018-05-14T05:19:18.955Z,100.00
2018-05-14T05:21:47.246Z,100.00
2018-05-14T05:24:16.023Z,100.00
2018-05-14T05:26:44.523Z,100.00
2018-05-14T05:29:12.827Z,100.00
2018-05-14T05:31:41.191Z,100.00
2018-05-14T05:34:10.252Z,100.00
2018-05-14T05:36:39.189Z,100.00
2018-05-14T05:39:07.534Z,100.00
2018-05-14T05:41:35.824Z,100.00
2018-05-14T05:44:04.315Z,100.00
2018-05-14T05:46:33.170Z,100.00
2018-05-14T05:49:01.471Z,100.00
2018-05-14T05:51:30.114Z,100.00
2018-05-14T05:53:58.480Z,100.00
2018-05-14T05:56:27.118Z,100.00
2018-05-14T05:58:55.534Z,100.00
2018-05-14T06:01:23.895Z,100.00
2018-05-14T06:03:52.150Z,100.00
2018-05-14T06:06:21.436Z,100.00
2018-05-14T06:08:49.795Z,100.00
2018-05-14T06:11:18.087Z,100.00
2018-05-14T06:13:46.381Z,100.00
2018-05-14T06:16:14.794Z,100.00
2018-05-14T06:18:43.114Z,100.00
2018-05-14T06:21:12.023Z,100.00
2018-05-14T06:23:40.466Z,100.00
2018-05-14T06:26:08.775Z,100.00
2018-05-14T06:28:37.794Z,100.00
2018-05-14T06:31:06.090Z,100.00
2018-05-14T06:33:34.387Z,100.00
2018-05-14T06:36:03.303Z,100.00
2018-05-14T06:38:41.162Z,100.00
2018-05-14T06:41:15.142Z,100.00
2018-05-14T06:43:49.563Z,100.00
2018-05-14T06:46:19.260Z,100.00
2018-05-14T06:48:48.211Z,100.00
2018-05-14T06:51:16.593Z,100.00
2018-05-14T06:53:44.886Z,100.00
2018-05-14T06:56:13.962Z,100.00
2018-05-14T06:58:42.275Z,99.24
2018-05-14T07:01:10.635Z,99.37
2018-05-14T07:03:39.038Z,99.29
2018-05-14T07:06:07.388Z,98.71
2018-05-14T07:08:35.679Z,97.86
2018-05-14T07:11:03.974Z,97.44
2018-05-14T07:13:32.310Z,95.08
2018-05-14T07:16:00.602Z,93.56
2018-05-14T07:18:29.511Z,94.24
2018-05-14T07:20:58.050Z,92.51
2018-05-14T07:23:26.334Z,92.50
2018-05-14T07:25:56.618Z,93.71
2018-05-14T07:28:24.926Z,94.41
2018-05-14T07:30:53.223Z,92.88
2018-05-14T07:33:21.551Z,93.51
2018-05-14T07:35:49.848Z,92.38
2018-05-14T07:38:18.194Z,93.75
2018-05-14T07:40:46.475Z,93.90
2018-05-14T07:43:14.761Z,93.39
2018-05-14T07:45:43.085Z,92.54
2018-05-14T07:48:11.374Z,93.44
2018-05-14T07:50:39.662Z,93.83
2018-05-14T07:53:08.426Z,93.47
2018-05-14T07:55:36.926Z,94.04
2018-05-14T07:58:05.230Z,94.33
2018-05-14T08:00:33.881Z,94.52
2018-05-14T08:03:02.167Z,94.66
2018-05-14T08:05:31.677Z,94.17
2018-05-14T08:07:59.967Z,94.14
2018-05-14T08:10:28.255Z,95.32
2018-05-14T08:12:57.374Z,94.52
2018-05-14T08:15:25.675Z,95.99
2018-05-14T08:17:53.963Z,95.70
2018-05-14T08:20:22.411Z,95.55
2018-05-14T08:22:51.336Z,95.09
2018-05-14T08:25:19.676Z,94.45
2018-05-14T08:27:48.042Z,95.20
2018-05-14T08:30:16.334Z,95.64
2018-05-14T08:32:44.663Z,96.51
2018-05-14T08:35:12.952Z,94.83
2018-05-14T08:37:41.459Z,95.38
2018-05-14T08:40:09.799Z,95.94
2018-05-14T08:42:38.091Z,95.10
2018-05-14T08:45:06.686Z,94.71
2018-05-14T08:47:35.015Z,94.93
2018-05-14T08:50:03.332Z,94.48
2018-05-14T08:52:32.148Z,93.96
2018-05-14T08:55:00.738Z,94.08
2018-05-14T08:57:29.023Z,94.92
2018-05-14T08:59:57.359Z,94.98
2018-05-14T09:02:25.659Z,94.84
2018-05-14T09:04:54.267Z,94.96
2018-05-14T09:07:22.947Z,95.92
2018-05-14T09:09:51.235Z,95.41
2018-05-14T09:12:19.875Z,95.94
2018-05-14T09:14:48.348Z,95.94
2018-05-14T09:17:16.627Z,96.04
2018-05-14T09:19:44.954Z,94.67
2018-05-14T09:22:13.405Z,94.26
2018-05-14T09:24:41.754Z,94.21
2018-05-14T09:27:10.772Z,92.81
2018-05-14T09:29:39.083Z,93.42
2018-05-14T09:32:07.807Z,92.28
2018-05-14T09:34:36.106Z,92.49
2018-05-14T09:37:04.439Z,92.50
2018-05-14T09:39:32.732Z,92.65
2018-05-14T09:42:01.459Z,91.29
2018-05-14T09:44:30.854Z,91.73
2018-05-14T09:46:59.912Z,92.60
2018-05-14T09:49:29.145Z,92.81
2018-05-14T09:51:57.447Z,93.04
2018-05-14T09:54:25.794Z,92.08
2018-05-14T09:56:54.865Z,91.99
2018-05-14T09:59:23.155Z,90.52
2018-05-14T10:01:53.056Z,90.72
2018-05-14T10:04:21.347Z,93.42
2018-05-14T10:06:49.641Z,93.24
2018-05-14T10:09:18.046Z,92.04
2018-05-14T10:11:46.894Z,93.22
2018-05-14T10:14:15.405Z,93.04
2018-05-14T10:16:44.111Z,93.49
2018-05-14T10:19:12.403Z,93.12
2018-05-14T10:21:40.930Z,93.11
2018-05-14T10:24:09.974Z,91.20
2018-05-14T10:26:38.788Z,89.86
2018-05-14T10:29:07.079Z,89.44
2018-05-14T10:31:35.576Z,90.39
2018-05-14T10:34:03.867Z,89.53
2018-05-14T10:36:32.535Z,88.06
2018-05-14T10:39:00.870Z,87.58
2018-05-14T10:41:29.487Z,89.93
2018-05-14T10:43:57.815Z,89.51
2018-05-14T10:46:26.611Z,87.12
2018-05-14T10:48:55.186Z,88.89
2018-05-14T10:51:23.496Z,89.87
2018-05-14T10:53:51.806Z,90.22
2018-05-14T10:56:20.220Z,90.01
2018-05-14T10:58:48.448Z,90.90
2018-05-14T11:01:17.663Z,91.31
2018-05-14T11:03:45.958Z,91.79
2018-05-14T11:06:14.242Z,90.64
2018-05-14T11:08:43.195Z,90.99
2018-05-14T11:11:11.495Z,90.56
2018-05-14T11:13:41.207Z,90.68
2018-05-14T11:16:09.623Z,90.38
2018-05-14T11:18:37.943Z,89.92
2018-05-14T11:21:06.230Z,89.06
2018-05-14T11:23:34.958Z,89.76
2018-05-14T11:26:03.242Z,90.46
2018-05-14T11:28:31.586Z,89.87
2018-05-14T11:30:59.879Z,90.18
2018-05-14T11:33:28.167Z,89.80
2018-05-14T11:35:56.508Z,88.99
2018-05-14T11:38:24.794Z,89.08
2018-05-14T11:40:53.099Z,88.50
2018-05-14T11:43:21.435Z,87.59
2018-05-14T11:45:49.816Z,87.07
2018-05-14T11:48:18.371Z,86.31
2018-05-14T11:50:46.721Z,85.23
2018-05-14T11:53:15.003Z,83.48
2018-05-14T11:55:43.310Z,84.46
2018-05-14T11:58:11.631Z,84.27
2018-05-14T12:00:40.087Z,84.80
2018-05-14T12:03:08.505Z,85.29
2018-05-14T12:05:38.006Z,85.88
2018-05-14T12:08:06.610Z,86.71
2018-05-14T12:10:35.667Z,85.98
2018-05-14T12:13:04.247Z,87.60
2018-05-14T12:15:32.583Z,87.23
2018-05-14T12:18:02.351Z,85.77
2018-05-14T12:20:30.800Z,83.75
2018-05-14T12:22:59.494Z,85.50
2018-05-14T12:25:28.273Z,85.12
2018-05-14T12:27:56.763Z,82.91
2018-05-14T12:30:25.187Z,81.82
2018-05-14T12:32:54.165Z,79.28
2018-05-14T12:35:21.758Z,78.83
2018-05-14T12:37:50.440Z,79.91
2018-05-14T12:40:18.734Z,80.43
2018-05-14T12:42:47.148Z,78.11
2018-05-14T12:45:15.443Z,78.79
2018-05-14T12:47:43.750Z,75.09
2018-05-14T12:50:12.117Z,76.48
2018-05-14T12:52:40.446Z,74.48
2018-05-14T12:55:08.735Z,74.27
2018-05-14T12:57:37.025Z,72.15
2018-05-14T13:00:06.111Z,73.72
2018-05-14T13:02:34.401Z,72.43
2018-05-14T13:05:02.690Z,73.59
2018-05-14T13:07:31.008Z,73.86
2018-05-14T13:09:59.752Z,75.41
2018-05-14T13:12:28.643Z,75.61
2018-05-14T13:14:56.926Z,77.57
2018-05-14T13:17:26.526Z,77.78
2018-05-14T13:19:55.048Z,81.93
2018-05-14T13:22:23.522Z,81.05
2018-05-14T13:24:52.143Z,79.79
2018-05-14T13:27:20.491Z,78.23
2018-05-14T13:29:48.778Z,76.72
2018-05-14T13:32:17.063Z,76.59
2018-05-14T13:34:45.375Z,78.70
2018-05-14T13:37:13.690Z,80.13
2018-05-14T13:39:42.032Z,81.35
2018-05-14T13:42:10.427Z,81.21
2018-05-14T13:44:40.820Z,82.93
2018-05-14T13:47:09.910Z,82.48
2018-05-14T13:49:38.212Z,83.83
2018-05-14T13:52:06.567Z,79.58
2018-05-14T13:54:34.974Z,76.10
2018-05-14T13:57:03.262Z,76.56
2018-05-14T13:59:32.163Z,77.58
2018-05-14T14:02:00.451Z,79.96
2018-05-14T14:04:28.748Z,80.59
2018-05-14T14:06:57.643Z,78.98
2018-05-14T14:09:25.930Z,77.47
2018-05-14T14:11:54.314Z,74.73
2018-05-14T14:14:22.910Z,74.06
2018-05-14T14:16:52.475Z,73.27
2018-05-14T14:19:20.806Z,72.80
2018-05-14T14:21:49.147Z,75.94
2018-05-14T14:24:17.494Z,78.75
2018-05-14T14:26:46.582Z,80.11
2018-05-14T14:29:14.905Z,80.62
2018-05-14T14:31:43.194Z,82.47
2018-05-14T14:34:11.499Z,84.08
2018-05-14T14:36:39.819Z,82.29
2018-05-14T14:39:08.111Z,82.13
2018-05-14T14:41:36.691Z,82.68
2018-05-14T14:44:05.407Z,82.19
2018-05-14T14:46:33.907Z,81.63
2018-05-14T14:49:02.321Z,82.96
2018-05-14T14:51:31.391Z,82.64
2018-05-14T14:54:00.963Z,82.04
2018-05-14T14:56:29.255Z,81.30
2018-05-14T14:58:57.585Z,80.15
2018-05-14T15:01:25.867Z,79.33
2018-05-14T15:03:54.255Z,80.06
2018-05-14T15:06:23.896Z,80.02
2018-05-14T15:08:52.458Z,79.56
2018-05-14T15:11:20.746Z,79.14
2018-05-14T15:13:49.060Z,78.34
2018-05-14T15:16:17.682Z,78.14
2018-05-14T15:18:45.966Z,80.53
2018-05-14T15:21:14.291Z,82.15
2018-05-14T15:23:42.586Z,83.92
2018-05-14T15:26:10.873Z,86.80
2018-05-14T15:28:39.933Z,88.90
2018-05-14T15:31:08.223Z,91.38
2018-05-14T15:33:36.522Z,92.36
2018-05-14T15:36:04.850Z,93.63
2018-05-14T15:38:33.739Z,94.62
2018-05-14T15:41:02.315Z,95.07
2018-05-14T15:43:31.413Z,95.60
2018-05-14T15:45:59.765Z,95.13
2018-05-14T15:48:28.067Z,94.82
2018-05-14T15:50:56.571Z,94.70
2018-05-14T15:53:24.862Z,94.79
2018-05-14T15:55:54.024Z,95.07
2018-05-14T15:58:22.340Z,95.61
2018-05-14T16:00:51.218Z,95.17
2018-05-14T16:03:20.034Z,95.41
2018-05-14T16:05:48.346Z,95.74
2018-05-14T16:08:16.674Z,96.36
2018-05-14T16:10:44.964Z,95.77
2018-05-14T16:13:13.483Z,95.73
2018-05-14T16:15:41.778Z,96.63
2018-05-14T16:18:10.062Z,96.88
2018-05-14T16:20:39.099Z,96.66
2018-05-14T16:23:07.399Z,97.31
2018-05-14T16:25:36.914Z,97.62
2018-05-14T16:28:06.023Z,97.75
2018-05-14T16:30:35.071Z,98.06
2018-05-14T16:33:03.412Z,98.25
2018-05-14T16:35:31.819Z,98.37
2018-05-14T16:38:00.871Z,98.11
2018-05-14T16:40:29.516Z,97.42
2018-05-14T16:42:58.011Z,96.76
2018-05-14T16:45:26.347Z,96.17
2018-05-14T16:47:54.799Z,96.24
2018-05-14T16:50:23.136Z,96.35
2018-05-14T16:52:51.426Z,95.64
2018-05-14T16:55:19.738Z,95.07
2018-05-14T16:57:48.113Z,94.39
2018-05-14T17:00:17.663Z,93.95
2018-05-14T17:02:46.758Z,93.12
2018-05-14T17:05:15.118Z,93.83
2018-05-14T17:07:43.613Z,93.89
2018-05-14T17:10:13.296Z,93.22
2018-05-14T17:12:41.483Z,93.72
2018-05-14T17:15:09.766Z,93.95
2018-05-14T17:17:38.371Z,94.25
2018-05-14T17:20:06.707Z,94.49
2018-05-14T17:22:34.990Z,94.59
2018-05-14T17:25:03.287Z,94.66
2018-05-14T17:27:31.603Z,94.85
2018-05-14T17:30:01.182Z,95.04
2018-05-14T17:32:29.423Z,95.02
2018-05-14T17:34:57.918Z,95.10
2018-05-14T17:37:26.202Z,95.02
2018-05-14T17:39:54.807Z,94.33
2018-05-14T17:42:23.159Z,93.89
2018-05-14T17:44:51.443Z,94.06
2018-05-14T17:47:19.731Z,93.72
2018-05-14T17:49:49.568Z,93.48
2018-05-14T17:52:19.230Z,92.58
2018-05-14T17:54:48.217Z,92.62
2018-05-14T17:57:16.534Z,93.64
2018-05-14T17:59:45.049Z,94.55
2018-05-14T18:02:13.566Z,94.37
2018-05-14T18:04:42.385Z,94.53
2018-05-14T18:07:11.355Z,94.29
2018-05-14T18:09:39.642Z,94.40
2018-05-14T18:12:08.631Z,94.52
2018-05-14T18:14:37.235Z,94.52
2018-05-14T18:17:05.526Z,94.48
2018-05-14T18:19:40.662Z,94.23
2018-05-14T18:22:12.880Z,93.56
2018-05-14T18:24:46.670Z,93.21
2018-05-14T18:27:20.474Z,94.59
2018-05-14T18:29:48.819Z,94.33
2018-05-14T18:32:17.112Z,94.63
2018-05-14T18:34:45.454Z,95.62
2018-05-14T18:37:15.201Z,95.65
2018-05-14T18:39:44.190Z,95.93
2018-05-14T18:42:12.730Z,96.06
2018-05-14T18:44:41.452Z,96.09
2018-05-14T18:47:11.707Z,95.48
2018-05-14T18:49:40.167Z,95.34
2018-05-14T18:52:10.706Z,95.44
2018-05-14T18:54:39.670Z,95.74
2018-05-14T18:57:08.931Z,95.37
2018-05-14T18:59:38.031Z,95.43
2018-05-14T19:02:07.127Z,95.46
2018-05-14T19:04:35.842Z,95.72
2018-05-14T19:07:04.766Z,95.56
2018-05-14T19:09:34.750Z,95.07
2018-05-14T19:12:03.654Z,94.89
2018-05-14T19:14:33.468Z,94.69
2018-05-14T19:17:07.378Z,95.08
2018-05-14T19:19:35.875Z,95.61
2018-05-14T19:22:05.188Z,94.99
2018-05-14T19:24:33.795Z,95.17
2018-05-14T19:27:02.995Z,95.85
2018-05-14T19:29:34.192Z,96.15
2018-05-14T19:32:02.841Z,96.35
2018-05-14T19:34:36.535Z,95.75
2018-05-14T19:37:05.866Z,95.54
2018-05-14T19:39:40.381Z,95.66
2018-05-14T19:42:11.870Z,95.76
2018-05-14T19:44:41.290Z,96.00
2018-05-14T19:47:09.755Z,95.92
2018-05-14T19:49:38.910Z,96.43
2018-05-14T19:52:07.707Z,97.21
2018-05-14T19:54:37.729Z,97.48
2018-05-14T19:57:06.019Z,97.69
2018-05-14T19:59:34.814Z,97.47
2018-05-14T20:02:03.615Z,97.47
2018-05-14T20:04:31.963Z,97.66
2018-05-14T20:07:00.575Z,98.28
2018-05-14T20:09:29.263Z,98.66
2018-05-14T20:11:58.929Z,97.96
2018-05-14T20:14:28.339Z,97.54
2018-05-14T20:16:56.552Z,96.97
2018-05-14T20:19:25.438Z,96.61
2018-05-14T20:21:54.361Z,96.62
2018-05-14T20:24:23.730Z,96.11
2018-05-14T20:26:52.039Z,96.02
2018-05-14T20:29:20.538Z,95.91
2018-05-14T20:31:49.027Z,95.81
2018-05-14T20:34:17.725Z,96.13
2018-05-14T20:36:46.740Z,96.47
2018-05-14T20:39:15.169Z,96.31
2018-05-14T20:41:43.518Z,96.39
2018-05-14T20:44:11.823Z,96.66
2018-05-14T20:46:40.824Z,96.63
2018-05-14T20:49:09.814Z,96.86
2018-05-14T20:51:38.272Z,96.50
2018-05-14T20:54:07.172Z,96.59
2018-05-14T20:56:36.327Z,96.22
2018-05-14T20:59:05.315Z,96.86
2018-05-14T21:01:34.469Z,96.98
2018-05-14T21:04:03.414Z,97.23
2018-05-14T21:06:31.947Z,97.17
2018-05-14T21:09:00.906Z,97.63
2018-05-14T21:11:30.151Z,97.71
2018-05-14T21:13:58.219Z,98.32
2018-05-14T21:16:27.622Z,99.21
2018-05-14T21:18:56.127Z,99.33
2018-05-14T21:21:24.875Z,99.21
2018-05-14T21:23:53.517Z,98.97
2018-05-14T21:26:22.468Z,98.74
2018-05-14T21:28:51.026Z,99.40
2018-05-14T21:31:19.441Z,100.00
2018-05-14T21:33:48.439Z,100.00
2018-05-14T21:36:18.048Z,100.00
2018-05-14T21:38:46.540Z,100.00
2018-05-14T21:41:15.202Z,100.00
2018-05-14T21:43:43.548Z,100.00
2018-05-14T21:46:11.852Z,100.00
2018-05-14T21:48:40.139Z,99.95
2018-05-14T21:51:08.520Z,99.51
2018-05-14T21:53:36.868Z,99.41
2018-05-14T21:56:05.162Z,99.48
2018-05-14T21:58:33.507Z,100.00
2018-05-14T22:01:01.807Z,100.00
2018-05-14T22:03:30.830Z,100.00
2018-05-14T22:05:59.159Z,100.00
2018-05-14T22:08:27.541Z,100.00
2018-05-14T22:10:55.838Z,100.00
2018-05-14T22:13:25.518Z,100.00
2018-05-14T22:15:53.791Z,100.00
2018-05-14T22:18:22.121Z,100.00
2018-05-14T22:20:52.426Z,100.00
2018-05-14T22:23:20.867Z,100.00
2018-05-14T22:25:49.594Z,100.00
2018-05-14T22:28:18.351Z,100.00
2018-05-14T22:30:47.047Z,100.00
2018-05-14T22:33:15.980Z,100.00
2018-05-14T22:35:44.403Z,100.00
2018-05-14T22:38:13.347Z,100.00
2018-05-14T22:40:41.727Z,100.00
2018-05-14T22:43:10.065Z,100.00
2018-05-14T22:45:38.359Z,100.00
2018-05-14T22:48:06.783Z,100.00
2018-05-14T22:50:35.143Z,100.00
2018-05-14T22:53:04.367Z,100.00
2018-05-14T22:55:33.259Z,100.00
2018-05-14T22:58:02.033Z,100.00
2018-05-14T23:00:33.060Z,100.00
2018-05-14T23:03:01.403Z,100.00
2018-05-14T23:05:29.791Z,100.00
2018-05-14T23:07:58.089Z,100.00
2018-05-14T23:10:26.439Z,100.00
2018-05-14T23:12:55.188Z,100.00
2018-05-14T23:15:23.487Z,100.00
2018-05-14T23:17:51.798Z,100.00
2018-05-14T23:20:20.095Z,100.00
2018-05-14T23:22:48.515Z,100.00
2018-05-14T23:25:17.475Z,100.00
2018-05-14T23:27:45.798Z,100.00
2018-05-14T23:30:14.515Z,100.00
2018-05-14T23:32:42.888Z,100.00
2018-05-14T23:35:11.201Z,100.00
2018-05-14T23:37:40.022Z,100.00
2018-05-14T23:40:08.371Z,100.00
2018-05-14T23:42:36.675Z,100.00
2018-05-14T23:45:05.730Z,100.00
2018-05-14T23:47:34.067Z,100.00
2018-05-14T23:50:03.122Z,100.00
2018-05-14T23:52:31.418Z,100.00
2018-05-14T23:55:01.631Z,100.00
2018-05-14T23:57:30.211Z,100.00
2018-05-14T23:59:58.567Z,100.00
